sensor_id;sensor_type;location;lat;lon;timestamp;pressure;altitude;pressure_sealevel;temperature;humidity
48364;BME280;34170;54.364;18.582;2022-09-09T00:00:24;100093.03;;;13.27;74.55
48364;BME280;34170;54.364;18.582;2022-09-09T00:03:26;100091.69;;;13.23;74.98
48364;BME280;34170;54.364;18.582;2022-09-09T00:05:59;100074.84;;;13.29;74.52
48364;BME280;34170;54.364;18.582;2022-09-09T00:09:07;100083.75;;;13.21;74.68
48364;BME280;34170;54.364;18.582;2022-09-09T00:11:43;100083.59;;;13.23;74.79
48364;BME280;34170;54.364;18.582;2022-09-09T00:14:22;100069.91;;;13.16;75.05
48364;BME280;34170;54.364;18.582;2022-09-09T00:17:00;100078.88;;;13.16;74.96
48364;BME280;34170;54.364;18.582;2022-09-09T00:19:44;100076.19;;;13.16;74.96
48364;BME280;34170;54.364;18.582;2022-09-09T00:22:19;100071.78;;;13.15;75.06
48364;BME280;34170;54.364;18.582;2022-09-09T00:24:51;100076.03;;;13.18;75.02
48364;BME280;34170;54.364;18.582;2022-09-09T00:27:44;100067.91;;;13.18;74.78
48364;BME280;34170;54.364;18.582;2022-09-09T00:30:20;100064.34;;;13.18;74.75
48364;BME280;34170;54.364;18.582;2022-09-09T00:32:55;100066.88;;;13.19;74.68
48364;BME280;34170;54.364;18.582;2022-09-09T00:35:29;100059.13;;;13.24;74.27
48364;BME280;34170;54.364;18.582;2022-09-09T00:38:03;100058.59;;;13.12;75.10
48364;BME280;34170;54.364;18.582;2022-09-09T00:40:48;100054.56;;;13.08;74.81
48364;BME280;34170;54.364;18.582;2022-09-09T00:43:30;100059.97;;;13.08;74.93
48364;BME280;34170;54.364;18.582;2022-09-09T00:48:50;100057.28;;;13.16;74.73
48364;BME280;34170;54.364;18.582;2022-09-09T00:51:34;100045.97;;;13.13;73.85
48364;BME280;34170;54.364;18.582;2022-09-09T00:56:43;100054.06;;;13.21;74.34
48364;BME280;34170;54.364;18.582;2022-09-09T01:02:27;100051.19;;;13.23;73.48
48364;BME280;34170;54.364;18.582;2022-09-09T01:05:05;100061.16;;;13.22;73.69
48364;BME280;34170;54.364;18.582;2022-09-09T01:07:35;100052.53;;;13.27;73.30
48364;BME280;34170;54.364;18.582;2022-09-09T01:10:07;100041.75;;;13.27;73.40
48364;BME280;34170;54.364;18.582;2022-09-09T01:12:43;100052.41;;;13.37;73.17
48364;BME280;34170;54.364;18.582;2022-09-09T01:15:23;100047.34;;;13.33;73.01
48364;BME280;34170;54.364;18.582;2022-09-09T01:18:08;100053.03;;;13.30;73.03
48364;BME280;34170;54.364;18.582;2022-09-09T01:20:53;100054.72;;;13.23;73.51
48364;BME280;34170;54.364;18.582;2022-09-09T01:23:32;100050.03;;;13.25;73.31
48364;BME280;34170;54.364;18.582;2022-09-09T01:28:59;100060.34;;;13.22;73.80
48364;BME280;34170;54.364;18.582;2022-09-09T01:31:36;100058.97;;;13.26;73.67
48364;BME280;34170;54.364;18.582;2022-09-09T01:34:15;100062.69;;;13.16;74.00
48364;BME280;34170;54.364;18.582;2022-09-09T01:36:45;100055.59;;;13.24;73.19
48364;BME280;34170;54.364;18.582;2022-09-09T01:39:13;100052.22;;;13.22;73.73
48364;BME280;34170;54.364;18.582;2022-09-09T01:41:42;100044.13;;;13.22;73.77
48364;BME280;34170;54.364;18.582;2022-09-09T01:44:12;100040.91;;;13.10;73.83
48364;BME280;34170;54.364;18.582;2022-09-09T01:46:43;100047.81;;;13.21;73.91
48364;BME280;34170;54.364;18.582;2022-09-09T01:49:16;100042.25;;;13.14;74.21
48364;BME280;34170;54.364;18.582;2022-09-09T01:51:46;100057.63;;;13.13;74.00
48364;BME280;34170;54.364;18.582;2022-09-09T01:54:18;100043.44;;;13.20;73.62
48364;BME280;34170;54.364;18.582;2022-09-09T01:57:04;100056.63;;;13.14;74.12
48364;BME280;34170;54.364;18.582;2022-09-09T02:08:09;100050.88;;;13.09;74.35
48364;BME280;34170;54.364;18.582;2022-09-09T02:11:21;100045.13;;;13.12;74.38
48364;BME280;34170;54.364;18.582;2022-09-09T02:14:03;100042.25;;;13.14;74.30
48364;BME280;34170;54.364;18.582;2022-09-09T02:16:48;100045.78;;;13.06;74.76
48364;BME280;34170;54.364;18.582;2022-09-09T02:19:32;100046.81;;;13.13;74.08
48364;BME280;34170;54.364;18.582;2022-09-09T02:22:08;100050.19;;;13.24;74.21
48364;BME280;34170;54.364;18.582;2022-09-09T02:24:38;100048.84;;;13.28;73.38
48364;BME280;34170;54.364;18.582;2022-09-09T02:27:14;100044.63;;;13.17;73.66
48364;BME280;34170;54.364;18.582;2022-09-09T02:29:44;100042.91;;;13.16;73.81
48364;BME280;34170;54.364;18.582;2022-09-09T02:32:20;100047.13;;;13.10;74.07
48364;BME280;34170;54.364;18.582;2022-09-09T02:34:57;100039.41;;;13.24;74.10
48364;BME280;34170;54.364;18.582;2022-09-09T02:37:31;100040.72;;;13.20;73.45
48364;BME280;34170;54.364;18.582;2022-09-09T02:39:59;100044.13;;;13.13;73.76
48364;BME280;34170;54.364;18.582;2022-09-09T02:42:26;100050.84;;;13.18;73.38
48364;BME280;34170;54.364;18.582;2022-09-09T02:44:55;100044.63;;;13.17;73.44
48364;BME280;34170;54.364;18.582;2022-09-09T02:47:39;100053.06;;;13.22;73.69
48364;BME280;34170;54.364;18.582;2022-09-09T02:50:26;100051.88;;;13.16;74.28
48364;BME280;34170;54.364;18.582;2022-09-09T02:53:23;100049.00;;;13.10;74.16
48364;BME280;34170;54.364;18.582;2022-09-09T02:55:57;100040.88;;;13.02;75.44
48364;BME280;34170;54.364;18.582;2022-09-09T02:58:27;100046.13;;;13.20;74.47
48364;BME280;34170;54.364;18.582;2022-09-09T03:01:02;100046.78;;;13.05;75.67
48364;BME280;34170;54.364;18.582;2022-09-09T03:03:31;100048.31;;;13.00;77.11
48364;BME280;34170;54.364;18.582;2022-09-09T03:06:02;100054.38;;;12.93;78.16
48364;BME280;34170;54.364;18.582;2022-09-09T03:08:29;100053.19;;;12.88;78.31
48364;BME280;34170;54.364;18.582;2022-09-09T03:10:59;100064.00;;;12.88;79.42
48364;BME280;34170;54.364;18.582;2022-09-09T03:13:31;100068.69;;;12.86;79.36
48364;BME280;34170;54.364;18.582;2022-09-09T03:15:58;100063.28;;;12.77;80.69
48364;BME280;34170;54.364;18.582;2022-09-09T03:18:28;100072.38;;;12.76;80.95
48364;BME280;34170;54.364;18.582;2022-09-09T03:20:57;100075.25;;;12.67;84.17
48364;BME280;34170;54.364;18.582;2022-09-09T03:23:27;100078.75;;;12.16;94.60
48364;BME280;34170;54.364;18.582;2022-09-09T03:25:56;100080.38;;;11.83;100.00
48364;BME280;34170;54.364;18.582;2022-09-09T03:28:34;100095.69;;;11.20;100.00
48364;BME280;34170;54.364;18.582;2022-09-09T03:31:04;100072.25;;;10.95;100.00
48364;BME280;34170;54.364;18.582;2022-09-09T03:33:37;100105.75;;;10.82;100.00
48364;BME280;34170;54.364;18.582;2022-09-09T03:36:06;100084.06;;;10.66;100.00
48364;BME280;34170;54.364;18.582;2022-09-09T03:38:35;100098.16;;;10.50;100.00
48364;BME280;34170;54.364;18.582;2022-09-09T03:41:03;100083.75;;;10.41;100.00
48364;BME280;34170;54.364;18.582;2022-09-09T03:43:34;100108.78;;;10.42;100.00
48364;BME280;34170;54.364;18.582;2022-09-09T03:46:01;100095.81;;;10.27;100.00
48364;BME280;34170;54.364;18.582;2022-09-09T03:48:29;100101.31;;;10.26;100.00
48364;BME280;34170;54.364;18.582;2022-09-09T03:50:58;100087.88;;;10.26;100.00
48364;BME280;34170;54.364;18.582;2022-09-09T03:53:29;100098.63;;;10.26;100.00
48364;BME280;34170;54.364;18.582;2022-09-09T03:55:57;100096.41;;;10.21;100.00
48364;BME280;34170;54.364;18.582;2022-09-09T03:58:28;100103.03;;;10.27;100.00
48364;BME280;34170;54.364;18.582;2022-09-09T04:01:06;100093.94;;;10.28;100.00
48364;BME280;34170;54.364;18.582;2022-09-09T04:03:37;100085.81;;;10.20;100.00
48364;BME280;34170;54.364;18.582;2022-09-09T04:06:05;100090.63;;;10.16;100.00
48364;BME280;34170;54.364;18.582;2022-09-09T04:08:34;100099.34;;;10.28;100.00
48364;BME280;34170;54.364;18.582;2022-09-09T04:11:04;100107.44;;;10.18;100.00
48364;BME280;34170;54.364;18.582;2022-09-09T04:13:36;100109.25;;;10.27;100.00
48364;BME280;34170;54.364;18.582;2022-09-09T04:16:11;100105.88;;;10.25;100.00
48364;BME280;34170;54.364;18.582;2022-09-09T04:18:39;100101.47;;;10.34;100.00
48364;BME280;34170;54.364;18.582;2022-09-09T04:21:08;100103.19;;;10.16;100.00
48364;BME280;34170;54.364;18.582;2022-09-09T04:23:37;100096.34;;;10.03;100.00
48364;BME280;34170;54.364;18.582;2022-09-09T04:26:05;100092.34;;;10.07;100.00
48364;BME280;34170;54.364;18.582;2022-09-09T04:28:35;100101.94;;;10.20;100.00
48364;BME280;34170;54.364;18.582;2022-09-09T04:31:15;100097.94;;;10.24;100.00
48364;BME280;34170;54.364;18.582;2022-09-09T04:33:44;100099.13;;;10.11;100.00
48364;BME280;34170;54.364;18.582;2022-09-09T04:36:13;100107.41;;;10.28;100.00
48364;BME280;34170;54.364;18.582;2022-09-09T04:38:41;100108.44;;;10.17;100.00
48364;BME280;34170;54.364;18.582;2022-09-09T04:41:08;100113.25;;;10.14;100.00
48364;BME280;34170;54.364;18.582;2022-09-09T04:43:40;100104.41;;;10.03;100.00
48364;BME280;34170;54.364;18.582;2022-09-09T04:46:08;100115.66;;;10.17;100.00
48364;BME280;34170;54.364;18.582;2022-09-09T04:48:35;100117.56;;;9.97;100.00
48364;BME280;34170;54.364;18.582;2022-09-09T04:51:07;100116.25;;;10.10;100.00
48364;BME280;34170;54.364;18.582;2022-09-09T04:53:36;100107.50;;;9.99;100.00
48364;BME280;34170;54.364;18.582;2022-09-09T04:56:09;100112.00;;;10.08;100.00
48364;BME280;34170;54.364;18.582;2022-09-09T04:58:42;100108.50;;;9.98;100.00
48364;BME280;34170;54.364;18.582;2022-09-09T05:01:16;100104.09;;;10.06;100.00
48364;BME280;34170;54.364;18.582;2022-09-09T05:03:50;100122.72;;;10.18;100.00
48364;BME280;34170;54.364;18.582;2022-09-09T05:06:21;100114.66;;;10.18;100.00
48364;BME280;34170;54.364;18.582;2022-09-09T05:08:52;100125.69;;;10.15;100.00
48364;BME280;34170;54.364;18.582;2022-09-09T05:11:29;100133.34;;;10.09;100.00
48364;BME280;34170;54.364;18.582;2022-09-09T05:14:01;100132.19;;;10.22;100.00
48364;BME280;34170;54.364;18.582;2022-09-09T05:16:30;100137.28;;;10.25;100.00
48364;BME280;34170;54.364;18.582;2022-09-09T05:18:58;100129.38;;;10.14;100.00
48364;BME280;34170;54.364;18.582;2022-09-09T05:21:34;100133.50;;;10.08;100.00
48364;BME280;34170;54.364;18.582;2022-09-09T05:24:01;100138.03;;;10.07;100.00
48364;BME280;34170;54.364;18.582;2022-09-09T05:26:28;100142.69;;;10.05;100.00
48364;BME280;34170;54.364;18.582;2022-09-09T05:29:00;100142.16;;;10.02;100.00
48364;BME280;34170;54.364;18.582;2022-09-09T05:31:30;100142.09;;;10.11;100.00
48364;BME280;34170;54.364;18.582;2022-09-09T05:34:02;100136.88;;;10.10;100.00
48364;BME280;34170;54.364;18.582;2022-09-09T05:36:29;100139.88;;;9.97;100.00
48364;BME280;34170;54.364;18.582;2022-09-09T05:38:56;100130.28;;;9.95;100.00
48364;BME280;34170;54.364;18.582;2022-09-09T05:41:26;100135.34;;;9.98;100.00
48364;BME280;34170;54.364;18.582;2022-09-09T05:43:56;100135.66;;;9.85;100.00
48364;BME280;34170;54.364;18.582;2022-09-09T05:46:24;100137.38;;;9.86;100.00
48364;BME280;34170;54.364;18.582;2022-09-09T05:48:53;100137.63;;;9.92;100.00
48364;BME280;34170;54.364;18.582;2022-09-09T05:51:29;100146.69;;;9.91;100.00
48364;BME280;34170;54.364;18.582;2022-09-09T05:54:04;63521.91;;;-146.14;100.00
48364;BME280;34170;54.364;18.582;2022-09-09T05:56:36;63521.91;;;-146.14;100.00
48364;BME280;34170;54.364;18.582;2022-09-09T05:59:05;63521.91;;;-146.14;100.00
48364;BME280;34170;54.364;18.582;2022-09-09T06:01:35;63521.91;;;-146.14;100.00
48364;BME280;34170;54.364;18.582;2022-09-09T06:04:04;63521.91;;;-146.14;100.00
48364;BME280;34170;54.364;18.582;2022-09-09T06:06:34;63521.91;;;-146.14;100.00
48364;BME280;34170;54.364;18.582;2022-09-09T06:09:25;100150.97;;;9.55;100.00
48364;BME280;34170;54.364;18.582;2022-09-09T06:11:52;100150.25;;;9.53;100.00
48364;BME280;34170;54.364;18.582;2022-09-09T06:14:22;100154.50;;;9.65;100.00
48364;BME280;34170;54.364;18.582;2022-09-09T06:16:51;100156.31;;;9.74;100.00
48364;BME280;34170;54.364;18.582;2022-09-09T06:19:23;100147.84;;;9.60;100.00
48364;BME280;34170;54.364;18.582;2022-09-09T06:21:55;100162.00;;;9.71;100.00
48364;BME280;34170;54.364;18.582;2022-09-09T06:24:22;100155.78;;;9.61;100.00
48364;BME280;34170;54.364;18.582;2022-09-09T06:26:50;100168.19;;;9.72;100.00
48364;BME280;34170;54.364;18.582;2022-09-09T06:29:22;100173.16;;;9.57;100.00
48364;BME280;34170;54.364;18.582;2022-09-09T06:31:50;100179.78;;;9.53;100.00
48364;BME280;34170;54.364;18.582;2022-09-09T06:34:21;100162.28;;;9.49;100.00
48364;BME280;34170;54.364;18.582;2022-09-09T06:36:56;100170.03;;;9.42;100.00
48364;BME280;34170;54.364;18.582;2022-09-09T06:39:36;100159.31;;;9.52;100.00
48364;BME280;34170;54.364;18.582;2022-09-09T06:42:03;100158.88;;;9.47;100.00
48364;BME280;34170;54.364;18.582;2022-09-09T06:44:54;100158.72;;;9.39;100.00
48364;BME280;34170;54.364;18.582;2022-09-09T06:47:29;100162.81;;;9.33;100.00
48364;BME280;34170;54.364;18.582;2022-09-09T06:49:58;100167.66;;;9.39;100.00
48364;BME280;34170;54.364;18.582;2022-09-09T06:52:25;100167.78;;;9.38;100.00
48364;BME280;34170;54.364;18.582;2022-09-09T06:54:54;100189.25;;;9.38;100.00
48364;BME280;34170;54.364;18.582;2022-09-09T06:57:22;100184.16;;;9.34;100.00
48364;BME280;34170;54.364;18.582;2022-09-09T07:00:11;100180.34;;;9.47;100.00
48364;BME280;34170;54.364;18.582;2022-09-09T07:02:41;100175.84;;;9.38;100.00
48364;BME280;34170;54.364;18.582;2022-09-09T07:05:09;100168.22;;;9.43;100.00
48364;BME280;34170;54.364;18.582;2022-09-09T07:07:38;100182.06;;;9.28;100.00
48364;BME280;34170;54.364;18.582;2022-09-09T07:10:06;100179.91;;;9.22;100.00
48364;BME280;34170;54.364;18.582;2022-09-09T07:12:36;100178.22;;;9.31;100.00
48364;BME280;34170;54.364;18.582;2022-09-09T07:15:05;100179.50;;;9.27;100.00
48364;BME280;34170;54.364;18.582;2022-09-09T07:17:33;100183.31;;;9.34;100.00
48364;BME280;34170;54.364;18.582;2022-09-09T07:20:01;100181.47;;;9.25;100.00
48364;BME280;34170;54.364;18.582;2022-09-09T07:22:30;100179.38;;;9.38;100.00
48364;BME280;34170;54.364;18.582;2022-09-09T07:24:57;100178.66;;;9.36;100.00
48364;BME280;34170;54.364;18.582;2022-09-09T07:27:25;100179.38;;;9.48;100.00
48364;BME280;34170;54.364;18.582;2022-09-09T07:29:53;100173.84;;;9.49;100.00
48364;BME280;34170;54.364;18.582;2022-09-09T07:32:21;100173.28;;;9.46;100.00
48364;BME280;34170;54.364;18.582;2022-09-09T07:34:49;100176.38;;;9.31;100.00
48364;BME280;34170;54.364;18.582;2022-09-09T07:37:17;100182.03;;;9.38;100.00
48364;BME280;34170;54.364;18.582;2022-09-09T07:39:46;100175.97;;;9.36;100.00
48364;BME280;34170;54.364;18.582;2022-09-09T07:42:13;100186.16;;;9.52;100.00
48364;BME280;34170;54.364;18.582;2022-09-09T07:44:42;100184.88;;;9.37;100.00
48364;BME280;34170;54.364;18.582;2022-09-09T07:47:12;100186.00;;;9.34;100.00
48364;BME280;34170;54.364;18.582;2022-09-09T07:49:44;100185.72;;;9.27;100.00
48364;BME280;34170;54.364;18.582;2022-09-09T07:52:16;100181.91;;;9.40;100.00
48364;BME280;34170;54.364;18.582;2022-09-09T07:54:50;100188.69;;;9.34;100.00
48364;BME280;34170;54.364;18.582;2022-09-09T07:57:17;100190.22;;;9.37;100.00
48364;BME280;34170;54.364;18.582;2022-09-09T07:59:45;100183.44;;;9.42;100.00
48364;BME280;34170;54.364;18.582;2022-09-09T08:02:13;100189.41;;;9.65;100.00
48364;BME280;34170;54.364;18.582;2022-09-09T08:04:41;100194.06;;;9.63;100.00
48364;BME280;34170;54.364;18.582;2022-09-09T08:07:09;100180.63;;;9.44;100.00
48364;BME280;34170;54.364;18.582;2022-09-09T08:09:44;100207.63;;;9.52;100.00
48364;BME280;34170;54.364;18.582;2022-09-09T08:12:18;100200.44;;;9.43;100.00
48364;BME280;34170;54.364;18.582;2022-09-09T08:14:46;100195.16;;;9.31;100.00
48364;BME280;34170;54.364;18.582;2022-09-09T08:17:13;100193.94;;;9.55;100.00
48364;BME280;34170;54.364;18.582;2022-09-09T08:19:42;100205.94;;;9.41;100.00
48364;BME280;34170;54.364;18.582;2022-09-09T08:22:14;100216.78;;;9.49;100.00
48364;BME280;34170;54.364;18.582;2022-09-09T08:24:41;100214.84;;;9.51;100.00
48364;BME280;34170;54.364;18.582;2022-09-09T08:27:08;100204.38;;;9.58;100.00
48364;BME280;34170;54.364;18.582;2022-09-09T08:29:38;100211.44;;;9.49;100.00
48364;BME280;34170;54.364;18.582;2022-09-09T08:32:06;100205.78;;;9.43;100.00
48364;BME280;34170;54.364;18.582;2022-09-09T08:34:34;100202.41;;;9.50;100.00
48364;BME280;34170;54.364;18.582;2022-09-09T08:37:06;100217.22;;;9.54;100.00
48364;BME280;34170;54.364;18.582;2022-09-09T08:39:37;100223.56;;;9.44;100.00
48364;BME280;34170;54.364;18.582;2022-09-09T08:42:37;100212.97;;;9.32;100.00
48364;BME280;34170;54.364;18.582;2022-09-09T08:45:21;100207.75;;;9.41;100.00
48364;BME280;34170;54.364;18.582;2022-09-09T08:50:35;100230.94;;;9.61;100.00
48364;BME280;34170;54.364;18.582;2022-09-09T08:53:27;100213.28;;;9.49;100.00
48364;BME280;34170;54.364;18.582;2022-09-09T08:56:02;100221.19;;;9.50;100.00
48364;BME280;34170;54.364;18.582;2022-09-09T08:58:47;100231.09;;;9.50;100.00
48364;BME280;34170;54.364;18.582;2022-09-09T09:10:04;100224.16;;;9.57;100.00
48364;BME280;34170;54.364;18.582;2022-09-09T09:12:56;100220.63;;;9.96;100.00
48364;BME280;34170;54.364;18.582;2022-09-09T09:15:26;100225.59;;;9.51;100.00
48364;BME280;34170;54.364;18.582;2022-09-09T09:17:59;100230.53;;;9.76;100.00
48364;BME280;34170;54.364;18.582;2022-09-09T09:20:42;100227.00;;;9.75;100.00
48364;BME280;34170;54.364;18.582;2022-09-09T09:23:21;100218.22;;;9.63;100.00
48364;BME280;34170;54.364;18.582;2022-09-09T09:25:51;100219.38;;;9.61;100.00
48364;BME280;34170;54.364;18.582;2022-09-09T09:28:25;100223.88;;;9.80;100.00
48364;BME280;34170;54.364;18.582;2022-09-09T09:31:08;100234.06;;;9.66;100.00
48364;BME280;34170;54.364;18.582;2022-09-09T09:33:48;100220.06;;;9.72;100.00
48364;BME280;34170;54.364;18.582;2022-09-09T09:36:19;100225.56;;;9.61;100.00
48364;BME280;34170;54.364;18.582;2022-09-09T09:38:57;100219.06;;;9.54;100.00
48364;BME280;34170;54.364;18.582;2022-09-09T09:41:45;100213.28;;;9.78;100.00
48364;BME280;34170;54.364;18.582;2022-09-09T09:44:28;100230.25;;;9.79;100.00
48364;BME280;34170;54.364;18.582;2022-09-09T09:47:15;100237.19;;;9.71;100.00
48364;BME280;34170;54.364;18.582;2022-09-09T09:49:58;100250.59;;;9.81;100.00
48364;BME280;34170;54.364;18.582;2022-09-09T09:52:31;100239.16;;;9.79;100.00
48364;BME280;34170;54.364;18.582;2022-09-09T09:55:03;100242.13;;;9.86;100.00
48364;BME280;34170;54.364;18.582;2022-09-09T09:57:36;100231.22;;;9.78;100.00
48364;BME280;34170;54.364;18.582;2022-09-09T10:02:46;100229.25;;;9.80;100.00
48364;BME280;34170;54.364;18.582;2022-09-09T10:05:24;100230.69;;;9.84;100.00
48364;BME280;34170;54.364;18.582;2022-09-09T10:08:09;100238.16;;;9.90;100.00
48364;BME280;34170;54.364;18.582;2022-09-09T10:19:11;100223.84;;;10.28;100.00
48364;BME280;34170;54.364;18.582;2022-09-09T10:27:55;100224.09;;;10.35;100.00
48364;BME280;34170;54.364;18.582;2022-09-09T10:36:16;100236.88;;;10.04;100.00
48364;BME280;34170;54.364;18.582;2022-09-09T10:39:10;100235.00;;;10.24;100.00
48364;BME280;34170;54.364;18.582;2022-09-09T10:42:09;100231.06;;;10.18;100.00
48364;BME280;34170;54.364;18.582;2022-09-09T10:55:40;100230.31;;;10.55;100.00
48364;BME280;34170;54.364;18.582;2022-09-09T10:58:14;100220.28;;;10.28;100.00
48364;BME280;34170;54.364;18.582;2022-09-09T11:00:47;100223.69;;;10.40;100.00
48364;BME280;34170;54.364;18.582;2022-09-09T11:03:24;100221.44;;;10.73;100.00
48364;BME280;34170;54.364;18.582;2022-09-09T11:06:05;100229.09;;;10.67;100.00
48364;BME280;34170;54.364;18.582;2022-09-09T11:08:36;100228.94;;;10.79;100.00
48364;BME280;34170;54.364;18.582;2022-09-09T11:11:19;100228.03;;;10.51;100.00
48364;BME280;34170;54.364;18.582;2022-09-09T11:16:22;100234.47;;;10.77;100.00
48364;BME280;34170;54.364;18.582;2022-09-09T11:18:58;100234.06;;;11.00;100.00
48364;BME280;34170;54.364;18.582;2022-09-09T11:21:34;100241.25;;;11.09;100.00
48364;BME280;34170;54.364;18.582;2022-09-09T11:24:26;100249.97;;;10.93;100.00
48364;BME280;34170;54.364;18.582;2022-09-09T11:27:00;100246.94;;;10.68;100.00
48364;BME280;34170;54.364;18.582;2022-09-09T11:40:25;100243.28;;;10.60;100.00
48364;BME280;34170;54.364;18.582;2022-09-09T11:43:41;100248.34;;;10.73;100.00
48364;BME280;34170;54.364;18.582;2022-09-09T11:46:08;100259.09;;;10.73;100.00
48364;BME280;34170;54.364;18.582;2022-09-09T11:48:39;100237.16;;;10.77;100.00
48364;BME280;34170;54.364;18.582;2022-09-09T11:56:42;100254.19;;;10.58;100.00
48364;BME280;34170;54.364;18.582;2022-09-09T11:59:27;100243.03;;;10.53;100.00
48364;BME280;34170;54.364;18.582;2022-09-09T12:05:13;100254.03;;;10.60;100.00
48364;BME280;34170;54.364;18.582;2022-09-09T12:07:51;100256.94;;;10.86;100.00
48364;BME280;34170;54.364;18.582;2022-09-09T12:10:32;100245.28;;;10.58;100.00
48364;BME280;34170;54.364;18.582;2022-09-09T12:13:18;100258.44;;;10.61;100.00
48364;BME280;34170;54.364;18.582;2022-09-09T12:15:48;100253.31;;;10.67;100.00
48364;BME280;34170;54.364;18.582;2022-09-09T12:18:23;100253.44;;;10.76;100.00
48364;BME280;34170;54.364;18.582;2022-09-09T12:21:06;100254.50;;;10.55;100.00
48364;BME280;34170;54.364;18.582;2022-09-09T12:29:25;100265.25;;;10.55;100.00
48364;BME280;34170;54.364;18.582;2022-09-09T12:32:11;100252.06;;;10.62;100.00
48364;BME280;34170;54.364;18.582;2022-09-09T12:34:44;100260.13;;;10.62;100.00
48364;BME280;34170;54.364;18.582;2022-09-09T12:37:52;100265.91;;;10.67;100.00
48364;BME280;34170;54.364;18.582;2022-09-09T12:40:29;100268.78;;;10.56;100.00
48364;BME280;34170;54.364;18.582;2022-09-09T12:42:58;100264.53;;;10.63;100.00
48364;BME280;34170;54.364;18.582;2022-09-09T12:45:32;100255.09;;;10.86;100.00
48364;BME280;34170;54.364;18.582;2022-09-09T12:48:07;100252.03;;;10.72;100.00
48364;BME280;34170;54.364;18.582;2022-09-09T12:50:37;100255.16;;;10.67;100.00
48364;BME280;34170;54.364;18.582;2022-09-09T12:53:11;100258.25;;;10.72;100.00
48364;BME280;34170;54.364;18.582;2022-09-09T12:56:18;100266.13;;;10.83;100.00
48364;BME280;34170;54.364;18.582;2022-09-09T12:58:38;100260.19;;;10.80;100.00
48364;BME280;34170;54.364;18.582;2022-09-09T13:01:20;100257.69;;;10.68;100.00
48364;BME280;34170;54.364;18.582;2022-09-09T13:03:48;100259.22;;;10.81;100.00
48364;BME280;34170;54.364;18.582;2022-09-09T13:06:30;100258.19;;;10.92;100.00
48364;BME280;34170;54.364;18.582;2022-09-09T13:09:00;100249.09;;;10.93;100.00
48364;BME280;34170;54.364;18.582;2022-09-09T13:11:40;100255.84;;;10.69;100.00
48364;BME280;34170;54.364;18.582;2022-09-09T13:14:38;100257.69;;;11.06;100.00
48364;BME280;34170;54.364;18.582;2022-09-09T13:17:06;100255.69;;;11.08;100.00
48364;BME280;34170;54.364;18.582;2022-09-09T13:19:44;100256.38;;;10.82;100.00
48364;BME280;34170;54.364;18.582;2022-09-09T13:27:40;100246.31;;;10.84;100.00
48364;BME280;34170;54.364;18.582;2022-09-09T13:33:22;100238.72;;;10.70;100.00
48364;BME280;34170;54.364;18.582;2022-09-09T13:36:02;100241.84;;;10.75;100.00
48364;BME280;34170;54.364;18.582;2022-09-09T13:38:33;100241.50;;;10.78;100.00
48364;BME280;34170;54.364;18.582;2022-09-09T13:43:37;100248.59;;;10.79;100.00
48364;BME280;34170;54.364;18.582;2022-09-09T13:46:28;100232.06;;;10.74;100.00
48364;BME280;34170;54.364;18.582;2022-09-09T13:51:41;100234.25;;;10.61;100.00
48364;BME280;34170;54.364;18.582;2022-09-09T13:54:10;100237.34;;;10.56;100.00
48364;BME280;34170;54.364;18.582;2022-09-09T13:56:39;100227.44;;;10.57;100.00
48364;BME280;34170;54.364;18.582;2022-09-09T13:59:15;100221.03;;;10.67;100.00
48364;BME280;34170;54.364;18.582;2022-09-09T14:01:43;100230.53;;;10.62;100.00
48364;BME280;34170;54.364;18.582;2022-09-09T14:04:11;100218.91;;;10.71;100.00
48364;BME280;34170;54.364;18.582;2022-09-09T14:06:39;100215.63;;;10.77;100.00
48364;BME280;34170;54.364;18.582;2022-09-09T14:09:09;100224.69;;;10.76;100.00
48364;BME280;34170;54.364;18.582;2022-09-09T14:11:38;100216.59;;;10.86;100.00
48364;BME280;34170;54.364;18.582;2022-09-09T14:14:05;100221.72;;;10.79;100.00
48364;BME280;34170;54.364;18.582;2022-09-09T14:16:33;100219.72;;;10.81;100.00
48364;BME280;34170;54.364;18.582;2022-09-09T14:19:00;100212.09;;;10.77;100.00
48364;BME280;34170;54.364;18.582;2022-09-09T14:21:28;100230.38;;;10.73;100.00
48364;BME280;34170;54.364;18.582;2022-09-09T14:23:55;100212.53;;;10.72;100.00
48364;BME280;34170;54.364;18.582;2022-09-09T14:26:25;100224.00;;;10.74;100.00
48364;BME280;34170;54.364;18.582;2022-09-09T14:28:53;100213.38;;;10.73;100.00
48364;BME280;34170;54.364;18.582;2022-09-09T14:31:23;100222.31;;;10.73;100.00
48364;BME280;34170;54.364;18.582;2022-09-09T14:33:52;100221.72;;;10.79;100.00
48364;BME280;34170;54.364;18.582;2022-09-09T14:36:20;100221.00;;;10.77;100.00
48364;BME280;34170;54.364;18.582;2022-09-09T14:38:47;100217.03;;;10.81;100.00
48364;BME280;34170;54.364;18.582;2022-09-09T14:41:17;100221.63;;;10.99;100.00
48364;BME280;34170;54.364;18.582;2022-09-09T14:43:44;100220.25;;;10.85;100.00
48364;BME280;34170;54.364;18.582;2022-09-09T14:46:15;100233.81;;;10.93;100.00
48364;BME280;34170;54.364;18.582;2022-09-09T14:48:43;100233.81;;;10.93;100.00
48364;BME280;34170;54.364;18.582;2022-09-09T14:51:22;100240.09;;;10.84;100.00
48364;BME280;34170;54.364;18.582;2022-09-09T14:53:58;100240.44;;;10.99;100.00
48364;BME280;34170;54.364;18.582;2022-09-09T14:56:29;100243.63;;;10.84;100.00